Time;durP1;ratioP1;P1;durP2;ratioP2;P2;SDS_P1;SDS_P2;PMS_P1;PMS_P2;Temp;Humidity;BMP_temperature;BMP_pressure;BME280_temperature;BME280_humidity;BME280_pressure;Samples;Min_cycle;Max_cycle;Signal;HPM_P1;HPM_P2
2023/10/15 04:30:56;;;;;;;0.05;0.05;;;10.40;73.40;;;;;;5613619;23;20047;-78
2023/10/15 04:33:25;;;;;;;0.10;0.10;;;10.40;73.40;;;;;;4901178;29;20031;-77
2023/10/15 04:35:51;;;;;;;0.08;0.08;;;10.40;73.30;;;;;;4887934;29;20473;-77
2023/10/15 04:38:22;;;;;;;0.00;0.00;;;10.40;73.30;;;;;;4903776;29;20107;-78
2023/10/15 04:43:25;;;;;;;0.10;0.10;;;10.30;73.60;;;;;;4885024;29;20032;-78
2023/10/15 04:45:51;;;;;;;0.10;0.10;;;10.30;73.40;;;;;;4890231;29;20016;-77
2023/10/15 04:48:26;;;;;;;0.03;0.03;;;10.30;73.20;;;;;;4886863;29;20036;-78
2023/10/15 04:50:52;;;;;;;0.10;0.10;;;10.30;73.30;;;;;;4884807;29;20049;-78
2023/10/15 04:55:48;;;;;;;0.00;0.00;;;10.30;73.50;;;;;;4884960;29;20412;-78
2023/10/15 04:58:15;;;;;;;0.10;0.10;;;10.30;73.60;;;;;;4868083;29;20036;-78
2023/10/15 05:00:48;;;;;;;0.10;0.10;;;10.30;73.50;;;;;;4884068;29;20112;-77
2023/10/15 05:03:14;;;;;;;;;;;10.20;73.50;;;;;;4885042;29;20871;-77
2023/10/15 05:05:43;;;;;;;0.10;0.10;;;10.20;73.60;;;;;;4870452;29;19912;-77
2023/10/15 05:08:12;;;;;;;0.10;0.10;;;10.20;73.80;;;;;;4903246;29;20043;-77
2023/10/15 05:10:50;;;;;;;0.05;0.05;;;10.20;73.80;;;;;;4903642;29;20032;-77
2023/10/15 05:13:17;;;;;;;0.10;0.10;;;10.20;73.80;;;;;;4902515;29;20180;-77
2023/10/15 05:15:49;;;;;;;0.10;0.10;;;10.20;73.80;;;;;;4903473;29;20084;-78
2023/10/15 05:18:15;;;;;;;0.10;0.10;;;10.10;73.80;;;;;;4903426;29;20504;-77
2023/10/15 05:20:47;;;;;;;0.10;0.10;;;10.10;74.00;;;;;;4903088;29;20033;-77
2023/10/15 05:23:14;;;;;;;0.10;0.10;;;10.10;73.90;;;;;;4902982;29;20036;-77
2023/10/15 05:25:39;;;;;;;0.05;0.05;;;10.10;73.80;;;;;;4887677;29;20025;-77
2023/10/15 05:28:06;;;;;;;0.00;0.00;;;10.10;73.80;;;;;;4884323;29;20076;-77
2023/10/15 05:30:32;;;;;;;0.10;0.10;;;10.10;73.80;;;;;;4867582;29;20049;-77
2023/10/15 05:33:01;;;;;;;0.10;0.10;;;10.00;73.80;;;;;;4900048;29;20503;-77
2023/10/15 05:35:30;;;;;;;0.00;0.00;;;10.10;73.80;;;;;;4903141;29;20063;-77
2023/10/15 05:37:56;;;;;;;0.05;0.05;;;10.10;73.90;;;;;;4902853;29;20028;-77
2023/10/15 05:40:22;;;;;;;0.00;0.00;;;10.10;73.90;;;;;;4899301;29;20024;-77
2023/10/15 05:42:48;;;;;;;0.10;0.10;;;10.10;73.90;;;;;;4903080;29;20096;-77
2023/10/15 05:45:15;;;;;;;0.10;0.10;;;10.10;74.00;;;;;;4902869;29;20457;-78
2023/10/15 05:47:44;;;;;;;0.10;0.10;;;10.30;73.80;;;;;;4902571;29;20078;-77
2023/10/15 05:50:12;;;;;;;0.10;0.10;;;10.30;73.50;;;;;;4902789;29;20036;-77
2023/10/15 05:52:38;;;;;;;0.10;0.10;;;10.30;73.50;;;;;;4901754;29;20029;-77
2023/10/15 05:55:06;;;;;;;0.10;0.10;;;10.40;73.60;;;;;;4902861;29;20103;-77
2023/10/15 05:57:31;;;;;;;0.00;0.00;;;10.40;73.60;;;;;;4902639;29;20072;-77
2023/10/15 05:59:57;;;;;;;0.10;0.10;;;10.40;73.50;;;;;;4897486;29;20017;-77
2023/10/15 06:02:23;;;;;;;0.00;0.00;;;10.40;73.50;;;;;;4899484;29;20029;-78
2023/10/15 06:04:49;;;;;;;0.10;0.10;;;10.50;73.40;;;;;;4902154;29;20112;-77
2023/10/15 06:07:15;;;;;;;0.10;0.10;;;10.50;73.40;;;;;;4902069;29;20056;-77
2023/10/15 06:09:44;;;;;;;0.10;0.10;;;10.50;73.50;;;;;;4900975;29;20052;-77
2023/10/15 06:12:10;;;;;;;0.00;0.00;;;10.40;73.90;;;;;;4902355;29;20033;-77
2023/10/15 06:14:36;;;;;;;0.08;0.08;;;10.50;73.80;;;;;;4901198;29;20550;-78
2023/10/15 06:17:02;;;;;;;0.10;0.10;;;10.50;74.00;;;;;;4883451;29;20033;-78
2023/10/15 06:19:30;;;;;;;0.15;0.15;;;10.60;74.00;;;;;;4898350;29;20036;-78
2023/10/15 06:21:56;;;;;;;0.10;0.10;;;10.60;74.10;;;;;;4892293;29;20056;-78
2023/10/15 06:24:21;;;;;;;0.10;0.10;;;10.60;74.10;;;;;;4882096;29;20029;-77
2023/10/15 06:26:48;;;;;;;0.00;0.00;;;10.60;74.20;;;;;;4883379;29;20040;-83
2023/10/15 06:29:15;;;;;;;0.10;0.10;;;10.60;74.30;;;;;;4910764;29;20029;-85
2023/10/15 06:32:12;;;;;;;0.10;0.10;;;10.70;74.50;;;;;;4867477;29;20494;-84
2023/10/15 06:34:58;;;;;;;0.00;0.00;;;10.70;74.50;;;;;;4873446;29;20041;-88
2023/10/15 06:37:27;;;;;;;0.10;0.10;;;10.80;74.30;;;;;;4867214;29;20025;-87
2023/10/15 06:39:59;;;;;;;0.00;0.00;;;10.80;74.00;;;;;;4866577;29;20021;-89
2023/10/15 06:49:39;;;;;;;0.10;0.10;;;10.80;75.00;;;;;;4826629;29;20060;-87
2023/10/15 06:52:20;;;;;;;0.10;0.10;;;10.80;74.90;;;;;;4866732;29;20021;-86
2023/10/15 06:54:46;;;;;;;0.10;0.10;;;10.80;74.40;;;;;;4866258;29;20413;-87
2023/10/15 06:57:16;;;;;;;0.10;0.10;;;10.80;74.30;;;;;;4866441;29;20026;-86
2023/10/15 06:59:43;;;;;;;0.10;0.10;;;10.80;74.10;;;;;;4866309;29;20083;-82
2023/10/15 07:02:08;;;;;;;0.00;0.00;;;10.90;74.10;;;;;;4857093;29;20025;-85
2023/10/15 07:04:34;;;;;;;0.10;0.10;;;10.80;74.40;;;;;;4864317;29;20123;-89
2023/10/15 07:07:00;;;;;;;0.10;0.10;;;10.80;74.50;;;;;;4864560;29;20029;-81
2023/10/15 07:09:27;;;;;;;0.00;0.00;;;10.90;74.60;;;;;;4848255;29;20044;-87
2023/10/15 07:11:54;;;;;;;0.10;0.10;;;10.80;74.60;;;;;;4872359;29;20053;-88
2023/10/15 07:14:24;;;;;;;0.10;0.10;;;10.90;74.30;;;;;;4880800;29;20125;-86
2023/10/15 07:16:50;;;;;;;0.10;0.10;;;10.90;74.30;;;;;;4865013;29;20569;-85
2023/10/15 07:19:16;;;;;;;0.10;0.10;;;10.90;74.50;;;;;;4865579;29;20027;-82
2023/10/15 07:21:42;;;;;;;0.10;0.10;;;11.00;74.30;;;;;;4879922;29;20393;-84
2023/10/15 07:24:11;;;;;;;0.10;0.10;;;11.10;74.40;;;;;;4882715;29;20037;-83
2023/10/15 07:26:40;;;;;;;0.10;0.10;;;11.30;73.70;;;;;;4866170;29;20520;-87
2023/10/15 07:29:07;;;;;;;0.10;0.10;;;11.30;73.60;;;;;;4866390;29;20064;-85
2023/10/15 07:31:33;;;;;;;0.10;0.10;;;11.40;73.00;;;;;;4866132;29;20072;-86
2023/10/15 07:34:01;;;;;;;0.10;0.10;;;11.30;73.10;;;;;;4880417;29;20029;-85
2023/10/15 07:36:28;;;;;;;0.10;0.10;;;11.20;73.50;;;;;;4882340;29;20108;-86
2023/10/15 07:38:54;;;;;;;0.10;0.10;;;11.20;73.80;;;;;;4885775;29;20013;-86
2023/10/15 07:41:20;;;;;;;0.10;0.10;;;11.30;74.30;;;;;;4870522;29;20029;-86
2023/10/15 07:43:46;;;;;;;0.10;0.10;;;11.20;74.60;;;;;;4886886;29;20867;-88
2023/10/15 07:46:12;;;;;;;0.10;0.10;;;11.30;74.40;;;;;;4870678;29;20025;-88
2023/10/15 07:48:37;;;;;;;0.10;0.10;;;11.40;74.10;;;;;;4887135;29;20033;-88
2023/10/15 07:54:53;;;;;;;;;;;;;;;;;;;;;
2023/10/15 07:57:21;;;;;;;0.10;0.10;;;11.70;73.40;;;;;;4841272;29;20125;-86
2023/10/15 07:59:47;;;;;;;0.10;0.10;;;11.70;73.20;;;;;;4869322;29;20032;-87
2023/10/15 08:02:13;;;;;;;0.10;0.10;;;11.70;73.60;;;;;;4885935;29;20033;-88
2023/10/15 08:04:38;;;;;;;0.20;0.20;;;11.70;73.50;;;;;;4886442;29;20021;-85
2023/10/15 08:07:08;;;;;;;0.10;0.10;;;11.90;73.40;;;;;;4886039;29;20120;-90
2023/10/15 08:09:34;;;;;;;0.10;0.10;;;12.00;73.10;;;;;;4869455;29;20040;-89
2023/10/15 08:11:59;;;;;;;0.10;0.10;;;12.10;73.00;;;;;;4869263;29;20033;-86
2023/10/15 08:14:25;;;;;;;0.10;0.10;;;12.20;72.60;;;;;;4885950;29;20029;-87
2023/10/15 08:16:51;;;;;;;0.00;0.00;;;12.30;72.20;;;;;;4868866;29;20146;-86
2023/10/15 08:19:16;;;;;;;0.10;0.10;;;12.30;71.90;;;;;;4885290;29;20557;-85
2023/10/15 08:21:43;;;;;;;0.20;0.20;;;12.50;71.50;;;;;;4878902;29;20041;-87
2023/10/15 08:24:09;;;;;;;0.10;0.10;;;12.50;70.90;;;;;;4863207;29;20033;-86
2023/10/15 08:26:34;;;;;;;0.03;0.03;;;12.70;70.60;;;;;;4883351;29;20036;-86
2023/10/15 08:29:00;;;;;;;0.10;0.10;;;12.70;70.10;;;;;;4882506;29;20446;-83
2023/10/15 08:31:28;;;;;;;0.10;0.10;;;12.80;69.90;;;;;;4887926;29;20508;-81
2023/10/15 08:33:55;;;;;;;0.10;0.10;;;12.80;69.10;;;;;;4904064;29;20501;-85
2023/10/15 08:36:21;;;;;;;0.10;0.10;;;12.80;68.70;;;;;;4885769;29;20481;-84
2023/10/15 08:38:49;;;;;;;0.10;0.10;;;12.80;69.00;;;;;;4903792;29;20511;-82
2023/10/15 08:41:16;;;;;;;0.10;0.10;;;12.90;69.00;;;;;;4872653;29;20028;-81
2023/10/15 08:43:46;;;;;;;0.10;0.10;;;12.90;69.60;;;;;;4875317;29;20068;-80
2023/10/15 08:46:12;;;;;;;0.10;0.10;;;12.90;69.20;;;;;;4915083;29;20028;-80
2023/10/15 08:48:41;;;;;;;0.10;0.10;;;12.90;69.10;;;;;;4922145;29;20556;-81
2023/10/15 08:51:13;;;;;;;0.10;0.10;;;12.90;69.10;;;;;;4909211;29;20036;-80
2023/10/15 08:53:41;;;;;;;0.13;0.10;;;12.90;68.00;;;;;;4887723;29;20032;-81
2023/10/15 08:56:09;;;;;;;0.10;0.10;;;13.00;67.80;;;;;;4887331;29;20036;-82
2023/10/15 08:58:35;;;;;;;0.10;0.10;;;13.10;66.30;;;;;;4895808;29;20076;-81
2023/10/15 09:01:02;;;;;;;0.10;0.10;;;13.20;66.70;;;;;;4909456;29;20033;-82
2023/10/15 09:03:31;;;;;;;0.10;0.10;;;13.20;66.40;;;;;;4886876;29;20046;-81
2023/10/15 09:05:57;;;;;;;0.10;0.10;;;13.20;66.90;;;;;;4891420;29;20039;-83
2023/10/15 09:08:23;;;;;;;0.10;0.10;;;13.30;66.90;;;;;;4884295;29;20029;-83
2023/10/15 09:10:52;;;;;;;0.10;0.10;;;13.40;66.60;;;;;;4867832;29;20427;-90
2023/10/15 09:13:19;;;;;;;0.10;0.10;;;13.40;66.40;;;;;;4868265;29;20025;-90
2023/10/15 09:15:52;;;;;;;0.10;0.10;;;13.50;66.10;;;;;;4876985;29;20495;-86
2023/10/15 09:18:18;;;;;;;0.08;0.08;;;13.60;65.80;;;;;;4903358;29;20080;-89
2023/10/15 09:20:50;;;;;;;0.10;0.10;;;13.70;65.80;;;;;;4899645;29;20040;-87
2023/10/15 09:23:23;;;;;;;0.10;0.10;;;13.80;64.50;;;;;;4883300;29;20021;-85
2023/10/15 09:25:53;;;;;;;0.15;0.15;;;13.80;63.50;;;;;;4888514;29;20032;-85
2023/10/15 09:28:19;;;;;;;0.10;0.10;;;14.00;62.90;;;;;;4867222;29;20036;-85
2023/10/15 09:30:46;;;;;;;0.10;0.10;;;14.20;61.40;;;;;;4893979;29;20390;-86
2023/10/15 09:33:16;;;;;;;0.10;0.10;;;14.40;60.90;;;;;;4883073;29;20031;-87
2023/10/15 09:35:42;;;;;;;0.00;0.00;;;14.40;57.90;;;;;;4881096;29;20043;-89
2023/10/15 09:38:14;;;;;;;0.10;0.10;;;14.40;58.90;;;;;;4897193;29;20134;-89
2023/10/15 09:40:43;;;;;;;0.10;0.10;;;14.30;57.10;;;;;;4868644;29;20124;-89
2023/10/15 09:43:10;;;;;;;0.10;0.10;;;14.30;57.40;;;;;;4871069;29;20028;-82
2023/10/15 09:45:36;;;;;;;0.08;0.08;;;14.30;57.10;;;;;;4868311;29;20101;-83
2023/10/15 09:48:05;;;;;;;0.00;0.00;;;14.30;57.90;;;;;;4897347;29;20128;-84
2023/10/15 09:50:32;;;;;;;0.10;0.10;;;14.30;57.10;;;;;;4882555;29;20061;-84
2023/10/15 09:53:01;;;;;;;0.10;0.10;;;14.40;57.80;;;;;;4881334;29;20057;-86
2023/10/15 09:55:31;;;;;;;0.00;0.00;;;14.50;57.80;;;;;;4868387;29;20046;-84
2023/10/15 09:57:58;;;;;;;0.15;0.10;;;14.50;56.70;;;;;;4872635;29;20477;-80
2023/10/15 10:01:25;;;;;;;0.10;0.10;;;14.60;57.70;;;;;;4885558;29;20032;-82
2023/10/15 10:03:40;;;;;;;0.08;0.08;;;14.70;57.90;;;;;;4882009;29;20037;-83
2023/10/15 10:06:24;;;;;;;0.10;0.10;;;14.70;57.00;;;;;;4877305;29;20049;-85
2023/10/15 10:09:30;;;;;;;0.10;0.10;;;14.70;57.10;;;;;;4881461;29;20072;-83
2023/10/15 10:12:21;;;;;;;0.10;0.10;;;14.80;57.40;;;;;;4895010;29;20032;-83
2023/10/15 10:14:56;;;;;;;0.10;0.10;;;14.90;57.60;;;;;;4876490;29;20051;-85
2023/10/15 10:17:25;;;;;;;0.10;0.10;;;15.00;57.40;;;;;;4885040;29;20020;-83
2023/10/15 10:19:52;;;;;;;0.10;0.10;;;15.00;56.20;;;;;;4881432;29;20061;-89
2023/10/15 10:22:29;;;;;;;0.10;0.10;;;15.00;56.90;;;;;;4887568;29;20096;-88
2023/10/15 10:25:00;;;;;;;0.10;0.10;;;15.00;57.00;;;;;;4883905;29;20047;-92
2023/10/15 10:27:39;;;;;;;0.10;0.10;;;15.10;56.80;;;;;;4885665;29;20052;-86
2023/10/15 10:30:27;;;;;;;0.00;0.00;;;15.20;56.40;;;;;;4879082;29;20056;-84
2023/10/15 10:32:57;;;;;;;0.10;0.10;;;15.30;55.50;;;;;;4891933;29;20513;-87
2023/10/15 10:35:23;;;;;;;0.10;0.10;;;15.30;55.20;;;;;;4896108;29;20032;-86
2023/10/15 10:38:10;;;;;;;0.10;0.10;;;15.50;55.40;;;;;;4875930;29;20028;-82
2023/10/15 10:40:49;;;;;;;0.10;0.10;;;15.60;55.40;;;;;;4877595;29;20454;-85
2023/10/15 10:43:24;;;;;;;0.05;0.05;;;15.60;55.80;;;;;;4885465;29;20529;-76
2023/10/15 10:46:00;;;;;;;0.10;0.10;;;15.70;55.30;;;;;;4888384;29;20040;-76
2023/10/15 10:48:28;;;;;;;0.10;0.10;;;15.70;55.10;;;;;;4880280;29;20120;-75
2023/10/15 10:51:19;;;;;;;0.10;0.10;;;15.70;54.50;;;;;;4894258;29;20708;-81
2023/10/15 10:53:59;;;;;;;0.10;0.10;;;15.70;54.40;;;;;;4896094;29;20112;-75
2023/10/15 10:56:40;;;;;;;0.10;0.10;;;15.80;54.50;;;;;;4887998;29;20029;-76
2023/10/15 10:59:10;;;;;;;0.00;0.00;;;15.80;54.10;;;;;;4876873;29;20029;-76
2023/10/15 11:01:37;;;;;;;0.05;0.05;;;15.80;54.70;;;;;;4893348;29;20032;-75
2023/10/15 11:04:10;;;;;;;0.00;0.00;;;15.80;54.50;;;;;;4879310;29;20021;-76
2023/10/15 11:06:37;;;;;;;0.10;0.10;;;15.80;54.90;;;;;;4875743;29;20119;-76
2023/10/15 11:09:16;;;;;;;0.08;0.08;;;15.80;54.60;;;;;;4886924;29;20036;-77
2023/10/15 11:11:46;;;;;;;0.10;0.10;;;16.00;54.50;;;;;;4876682;29;20083;-78
2023/10/15 11:14:12;;;;;;;0.10;0.10;;;16.20;54.60;;;;;;4898824;29;20033;-78
2023/10/15 11:16:40;;;;;;;0.10;0.10;;;16.30;55.50;;;;;;4887670;29;20025;-78
2023/10/15 11:19:26;;;;;;;0.05;0.05;;;16.30;53.40;;;;;;4882938;29;20025;-77
2023/10/15 11:21:53;;;;;;;0.08;0.08;;;16.30;53.50;;;;;;4893108;29;20029;-81
2023/10/15 11:24:24;;;;;;;0.10;0.10;;;16.40;53.70;;;;;;4905845;29;20084;-83
2023/10/15 11:29:58;;;;;;;0.05;0.05;;;16.60;52.90;;;;;;4900774;29;20073;-88
2023/10/15 11:32:30;;;;;;;0.10;0.10;;;16.60;52.40;;;;;;4904334;29;20060;-83
2023/10/15 11:34:57;;;;;;;0.00;0.00;;;16.60;52.50;;;;;;4883647;29;20026;-85
2023/10/15 11:37:23;;;;;;;0.10;0.10;;;16.50;51.70;;;;;;4890477;29;20029;-85
2023/10/15 11:39:51;;;;;;;0.10;0.10;;;16.40;51.90;;;;;;4889138;29;20048;-85
2023/10/15 11:42:19;;;;;;;0.10;0.10;;;16.50;52.00;;;;;;4886001;29;20032;-86
2023/10/15 11:44:45;;;;;;;0.00;0.00;;;16.60;51.70;;;;;;4885985;29;20037;-85
2023/10/15 11:47:15;;;;;;;0.00;0.00;;;16.80;51.50;;;;;;4894133;29;20036;-85
2023/10/15 11:49:45;;;;;;;0.10;0.10;;;16.80;51.10;;;;;;4884463;29;20025;-86
2023/10/15 11:52:14;;;;;;;0.10;0.10;;;16.80;51.20;;;;;;4894996;29;20152;-85
2023/10/15 11:54:43;;;;;;;0.00;0.00;;;16.80;50.10;;;;;;4886598;29;20485;-86
2023/10/15 11:57:16;;;;;;;0.00;0.00;;;16.80;51.00;;;;;;4896698;29;20032;-84
2023/10/15 11:59:43;;;;;;;0.10;0.10;;;16.80;50.70;;;;;;4894108;29;20029;-84
2023/10/15 12:02:11;;;;;;;0.10;0.10;;;16.60;49.60;;;;;;4888750;29;20104;-84
2023/10/15 12:04:38;;;;;;;0.00;0.00;;;16.50;50.80;;;;;;4900619;29;20057;-84
2023/10/15 12:07:05;;;;;;;0.10;0.10;;;16.40;50.80;;;;;;4896424;29;20040;-84
2023/10/15 12:09:32;;;;;;;0.10;0.10;;;16.50;51.20;;;;;;4900798;29;20107;-78
2023/10/15 12:11:58;;;;;;;0.00;0.00;;;16.80;51.60;;;;;;4893037;29;20599;-78
2023/10/15 12:14:24;;;;;;;0.08;0.08;;;16.90;50.00;;;;;;4900954;29;20020;-78
2023/10/15 12:16:50;;;;;;;0.00;0.00;;;17.00;49.90;;;;;;4895893;29;20430;-81
2023/10/15 12:19:17;;;;;;;0.10;0.10;;;17.00;50.30;;;;;;4895922;29;20060;-80
2023/10/15 12:21:43;;;;;;;0.00;0.00;;;16.90;49.10;;;;;;4898417;29;20116;-80
2023/10/15 12:24:27;;;;;;;0.10;0.10;;;16.90;48.70;;;;;;4902219;29;20032;-83
2023/10/15 12:27:00;;;;;;;0.10;0.10;;;17.00;47.40;;;;;;4899043;29;20029;-83
2023/10/15 12:29:28;;;;;;;0.03;0.03;;;17.10;49.10;;;;;;4890082;29;20025;-77
2023/10/15 12:31:58;;;;;;;0.00;0.00;;;17.10;48.40;;;;;;4908140;29;20052;-78
2023/10/15 12:34:24;;;;;;;0.10;0.10;;;17.20;46.70;;;;;;4896819;29;20049;-79
2023/10/15 12:36:50;;;;;;;0.10;0.10;;;17.10;46.50;;;;;;4896767;29;20442;-79
2023/10/15 12:39:28;;;;;;;0.10;0.10;;;17.10;46.90;;;;;;4896032;29;20017;-79
2023/10/15 12:41:54;;;;;;;0.05;0.05;;;17.00;47.30;;;;;;4903321;29;20112;-79
2023/10/15 12:44:21;;;;;;;0.10;0.10;;;17.10;47.00;;;;;;4887474;29;20052;-79
2023/10/15 12:46:47;;;;;;;0.10;0.10;;;17.20;47.60;;;;;;4881793;29;20029;-77
2023/10/15 12:49:13;;;;;;;0.10;0.10;;;17.20;47.60;;;;;;4865273;29;20057;-77
2023/10/15 12:51:39;;;;;;;0.10;0.10;;;17.10;47.90;;;;;;4884858;29;20106;-76
2023/10/15 12:54:04;;;;;;;0.00;0.00;;;17.20;47.50;;;;;;4890579;29;20088;-76
2023/10/15 12:56:30;;;;;;;0.10;0.10;;;17.20;47.80;;;;;;4896729;29;20036;-76
2023/10/15 12:58:57;;;;;;;0.05;0.05;;;17.20;47.70;;;;;;4893026;29;20025;-76
2023/10/15 13:01:23;;;;;;;0.10;0.10;;;17.20;47.70;;;;;;4897963;29;20100;-76
2023/10/15 13:03:49;;;;;;;0.10;0.10;;;17.30;48.00;;;;;;4901223;29;20052;-77
2023/10/15 13:06:17;;;;;;;0.10;0.10;;;17.10;47.30;;;;;;4883152;29;20407;-76
2023/10/15 13:08:43;;;;;;;0.10;0.10;;;17.00;46.90;;;;;;4863197;29;20029;-76
2023/10/15 13:11:11;;;;;;;0.10;0.10;;;17.00;48.00;;;;;;4880708;29;20104;-77
2023/10/15 13:13:40;;;;;;;0.00;0.00;;;17.00;48.00;;;;;;4865306;29;20033;-76
2023/10/15 13:16:08;;;;;;;0.00;0.00;;;17.00;47.80;;;;;;4896371;29;20041;-77
2023/10/15 13:18:38;;;;;;;0.00;0.00;;;17.10;48.60;;;;;;4893712;29;20033;-76
2023/10/15 13:21:04;;;;;;;0.03;0.03;;;17.20;47.70;;;;;;4895623;29;20108;-76
2023/10/15 13:23:30;;;;;;;0.08;0.08;;;17.10;47.80;;;;;;4881499;29;20374;-77
2023/10/15 13:25:57;;;;;;;0.00;0.00;;;17.00;47.30;;;;;;4882275;29;20516;-77
2023/10/15 13:28:22;;;;;;;0.10;0.10;;;17.00;48.10;;;;;;4867172;29;20116;-76
2023/10/15 13:30:48;;;;;;;0.10;0.10;;;16.90;48.10;;;;;;4881577;29;20466;-76
2023/10/15 13:33:14;;;;;;;0.00;0.00;;;16.90;47.50;;;;;;4892199;29;20677;-77
2023/10/15 13:35:40;;;;;;;0.00;0.00;;;16.90;47.50;;;;;;4864896;29;20033;-76
2023/10/15 13:38:06;;;;;;;0.00;0.00;;;16.80;47.80;;;;;;4901662;29;20035;-76
2023/10/15 13:40:32;;;;;;;0.10;0.10;;;16.80;47.60;;;;;;4892252;29;20533;-77
2023/10/15 13:42:59;;;;;;;0.10;0.10;;;16.70;47.80;;;;;;4884073;29;20033;-76
2023/10/15 13:45:25;;;;;;;0.10;0.10;;;16.60;47.80;;;;;;4881704;29;20033;-76
2023/10/15 13:47:50;;;;;;;0.00;0.00;;;16.70;48.70;;;;;;4893923;29;20048;-76
2023/10/15 13:50:19;;;;;;;0.10;0.10;;;16.70;49.10;;;;;;4883168;29;20037;-76
2023/10/15 13:52:46;;;;;;;0.10;0.10;;;16.70;48.80;;;;;;4884102;29;20096;-76
2023/10/15 13:55:12;;;;;;;0.00;0.00;;;16.80;47.80;;;;;;4884985;29;20033;-76
2023/10/15 13:57:38;;;;;;;0.10;0.10;;;16.80;48.50;;;;;;4881306;29;20024;-76
2023/10/15 14:00:13;;;;;;;0.10;0.10;;;16.80;49.30;;;;;;4883840;29;20116;-76
2023/10/15 14:02:40;;;;;;;0.00;0.00;;;16.90;48.70;;;;;;4886904;29;20018;-76
2023/10/15 14:05:08;;;;;;;0.10;0.10;;;16.90;48.40;;;;;;4902289;29;20055;-76
2023/10/15 14:07:35;;;;;;;0.00;0.00;;;16.90;48.10;;;;;;4885488;29;20031;-76
2023/10/15 14:10:01;;;;;;;0.10;0.10;;;16.80;48.50;;;;;;4898283;29;20088;-76
2023/10/15 14:12:26;;;;;;;0.10;0.10;;;16.90;47.90;;;;;;4885455;29;20127;-76
2023/10/15 14:14:52;;;;;;;0.10;0.10;;;16.80;47.50;;;;;;4884549;29;20076;-76
2023/10/15 14:17:18;;;;;;;0.00;0.00;;;16.80;47.20;;;;;;4864677;29;20025;-77
2023/10/15 14:19:44;;;;;;;0.00;0.00;;;16.80;47.40;;;;;;4881927;29;20028;-77
2023/10/15 14:22:09;;;;;;;0.10;0.10;;;16.70;47.60;;;;;;4888984;29;20025;-81
2023/10/15 14:24:36;;;;;;;0.10;0.10;;;16.70;48.20;;;;;;4887628;29;20528;-79
2023/10/15 14:27:02;;;;;;;0.10;0.10;;;16.80;47.80;;;;;;4900056;29;20028;-78
2023/10/15 14:29:28;;;;;;;0.00;0.00;;;16.70;48.30;;;;;;4879277;29;20127;-79
2023/10/15 14:31:53;;;;;;;0.08;0.08;;;16.80;48.60;;;;;;4892951;29;20049;-82
2023/10/15 14:34:19;;;;;;;0.00;0.00;;;16.70;48.50;;;;;;4866653;29;20037;-78
2023/10/15 14:36:48;;;;;;;0.10;0.10;;;16.70;48.60;;;;;;4884393;29;20084;-82
2023/10/15 14:39:17;;;;;;;0.00;0.00;;;16.60;49.10;;;;;;4891111;29;20932;-78
2023/10/15 14:41:43;;;;;;;0.00;0.00;;;16.60;49.10;;;;;;4897607;29;20020;-85
2023/10/15 14:44:09;;;;;;;0.03;0.03;;;16.60;48.80;;;;;;4883479;29;20042;-78
2023/10/15 14:46:37;;;;;;;0.08;0.08;;;16.50;48.40;;;;;;4879773;29;20092;-81
2023/10/15 14:49:03;;;;;;;0.17;0.10;;;16.60;49.70;;;;;;4893154;29;20032;-78
2023/10/15 14:51:29;;;;;;;0.00;0.00;;;16.50;49.00;;;;;;4895129;29;20393;-81
2023/10/15 14:53:54;;;;;;;0.00;0.00;;;16.40;48.30;;;;;;4893171;29;20089;-81
2023/10/15 14:56:21;;;;;;;0.00;0.00;;;16.40;47.70;;;;;;4879834;29;20080;-79
2023/10/15 14:58:46;;;;;;;0.10;0.10;;;16.30;48.40;;;;;;4902385;29;20033;-84
2023/10/15 15:01:12;;;;;;;0.00;0.00;;;16.30;48.20;;;;;;4882088;29;20039;-82
2023/10/15 15:03:38;;;;;;;0.00;0.00;;;16.30;49.20;;;;;;4888415;29;20060;-80
2023/10/15 15:06:09;;;;;;;0.05;0.05;;;16.30;48.30;;;;;;4880168;29;20068;-79
2023/10/15 15:08:36;;;;;;;0.00;0.00;;;16.20;49.20;;;;;;4890146;29;20040;-78
2023/10/15 15:11:01;;;;;;;0.00;0.00;;;16.20;49.20;;;;;;4884985;29;20421;-80
2023/10/15 15:13:27;;;;;;;0.00;0.00;;;16.20;48.40;;;;;;4901008;29;20040;-79
2023/10/15 15:15:53;;;;;;;0.00;0.00;;;16.10;48.60;;;;;;4890749;29;20040;-78
2023/10/15 15:18:19;;;;;;;0.10;0.10;;;16.00;48.70;;;;;;4893569;29;20032;-77
2023/10/15 15:20:44;;;;;;;0.10;0.10;;;16.00;49.30;;;;;;4874489;29;20025;-78
2023/10/15 15:23:10;;;;;;;0.00;0.00;;;15.90;49.00;;;;;;4892861;29;20040;-83
2023/10/15 15:25:38;;;;;;;0.00;0.00;;;15.80;49.40;;;;;;4900499;29;20040;-77
2023/10/15 15:28:04;;;;;;;0.00;0.00;;;15.70;49.20;;;;;;4884528;29;20056;-79
2023/10/15 15:30:30;;;;;;;0.00;0.00;;;15.80;50.70;;;;;;4881523;29;20120;-78
2023/10/15 15:32:55;;;;;;;0.00;0.00;;;15.80;50.40;;;;;;4882795;29;20051;-78
2023/10/15 15:35:21;;;;;;;0.00;0.00;;;15.80;50.80;;;;;;4889756;29;20029;-80
2023/10/15 15:37:48;;;;;;;0.10;0.10;;;15.70;50.10;;;;;;4915493;29;20051;-79
2023/10/15 15:40:14;;;;;;;0.00;0.00;;;15.70;50.70;;;;;;4879356;29;20445;-79
2023/10/15 15:42:39;;;;;;;0.00;0.00;;;15.70;50.90;;;;;;4897301;29;20036;-79
2023/10/15 15:45:08;;;;;;;0.00;0.00;;;15.60;51.00;;;;;;4879427;29;20033;-86
2023/10/15 15:47:34;;;;;;;0.00;0.00;;;15.60;50.60;;;;;;4864045;29;20044;-85
2023/10/15 15:49:59;;;;;;;0.00;0.00;;;15.60;52.00;;;;;;4886946;29;20028;-84
2023/10/15 15:52:25;;;;;;;0.00;0.00;;;15.50;51.80;;;;;;4896793;29;20033;-81
2023/10/15 15:54:51;;;;;;;0.00;0.00;;;15.50;53.00;;;;;;4879166;29;20068;-81
2023/10/15 15:57:18;;;;;;;0.00;0.00;;;15.50;53.00;;;;;;4881269;29;20084;-81
2023/10/15 15:59:46;;;;;;;0.00;0.00;;;15.50;54.00;;;;;;4899893;29;20036;-80
2023/10/15 16:02:11;;;;;;;0.00;0.00;;;15.50;54.00;;;;;;4896509;29;20029;-81
2023/10/15 16:04:37;;;;;;;0.00;0.00;;;15.40;52.60;;;;;;4903498;29;20552;-81
2023/10/15 16:07:03;;;;;;;0.00;0.00;;;15.50;53.00;;;;;;4900130;29;20024;-81
2023/10/15 16:09:28;;;;;;;0.00;0.00;;;15.40;52.60;;;;;;4890177;29;20040;-81
2023/10/15 16:11:54;;;;;;;0.00;0.00;;;15.50;53.30;;;;;;4873569;29;20036;-81
2023/10/15 16:14:20;;;;;;;0.00;0.00;;;15.40;53.00;;;;;;4896995;29;20033;-81
2023/10/15 16:16:46;;;;;;;0.00;0.00;;;15.40;54.00;;;;;;4887690;29;20021;-81
2023/10/15 16:19:11;;;;;;;0.00;0.00;;;15.40;53.90;;;;;;4899365;29;20084;-81
2023/10/15 16:21:37;;;;;;;0.00;0.00;;;15.30;55.30;;;;;;4880628;29;20045;-81
2023/10/15 16:24:03;;;;;;;0.10;0.10;;;15.30;53.90;;;;;;4889975;29;20087;-81
2023/10/15 16:26:33;;;;;;;0.00;0.00;;;15.20;53.60;;;;;;4894933;29;20013;-81
2023/10/15 16:28:59;;;;;;;0.00;0.00;;;15.20;53.90;;;;;;4885089;29;20029;-80
2023/10/15 16:31:25;;;;;;;0.00;0.00;;;15.10;54.00;;;;;;4896294;29;20059;-81
2023/10/15 16:33:50;;;;;;;0.00;0.00;;;15.10;56.10;;;;;;4874386;29;20040;-81
2023/10/15 16:36:16;;;;;;;0.00;0.00;;;15.00;54.50;;;;;;4890543;29;20050;-80
2023/10/15 16:38:41;;;;;;;0.00;0.00;;;14.90;55.90;;;;;;4882099;29;20381;-80
2023/10/15 16:41:08;;;;;;;0.10;0.10;;;14.90;55.60;;;;;;4888720;29;20029;-80
2023/10/15 16:43:33;;;;;;;0.10;0.10;;;15.00;56.20;;;;;;4893370;29;20029;-80
2023/10/15 16:46:00;;;;;;;0.00;0.00;;;15.00;54.90;;;;;;4884777;29;20079;-81
2023/10/15 16:48:25;;;;;;;0.00;0.00;;;14.80;55.10;;;;;;4897125;29;20044;-83
2023/10/15 16:50:51;;;;;;;0.00;0.00;;;14.80;55.50;;;;;;4902981;29;20554;-82
2023/10/15 16:53:17;;;;;;;0.00;0.00;;;14.80;56.70;;;;;;4892134;29;20037;-81
2023/10/15 16:55:43;;;;;;;0.00;0.00;;;14.80;58.10;;;;;;4898043;29;20040;-84
2023/10/15 16:58:09;;;;;;;0.00;0.00;;;14.70;57.90;;;;;;4886279;29;20021;-87
2023/10/15 17:00:35;;;;;;;0.00;0.00;;;14.70;57.20;;;;;;4891335;29;20033;-81
2023/10/15 17:03:03;;;;;;;0.00;0.00;;;14.70;57.60;;;;;;4899727;29;20029;-81
2023/10/15 17:05:39;;;;;;;;;;;;;;;;;;;;;
2023/10/15 17:08:06;;;;;;;0.00;0.00;;;14.60;57.00;;;;;;4892232;29;20040;-83
2023/10/15 17:10:31;;;;;;;0.00;0.00;;;14.50;56.80;;;;;;4884223;29;20039;-80
2023/10/15 17:12:57;;;;;;;0.10;0.10;;;14.40;56.60;;;;;;4893669;29;20025;-80
2023/10/15 17:15:23;;;;;;;0.00;0.00;;;14.30;56.70;;;;;;4885070;29;20032;-81
2023/10/15 17:17:49;;;;;;;0.00;0.00;;;14.30;56.80;;;;;;4886261;29;20072;-81
2023/10/15 17:20:22;;;;;;;0.00;0.00;;;14.30;57.10;;;;;;4890984;29;20025;-82
2023/10/15 17:22:50;;;;;;;0.08;0.08;;;14.20;57.30;;;;;;4898974;29;20084;-83
2023/10/15 17:25:16;;;;;;;0.10;0.10;;;14.20;57.70;;;;;;4884363;29;20032;-82
2023/10/15 17:27:42;;;;;;;0.10;0.10;;;14.10;57.90;;;;;;4888875;29;20040;-79
2023/10/15 17:30:16;;;;;;;0.00;0.00;;;14.00;58.40;;;;;;4897324;29;20035;-80
2023/10/15 17:32:42;;;;;;;0.00;0.00;;;14.00;58.70;;;;;;4875195;29;20196;-83
2023/10/15 17:35:08;;;;;;;0.00;0.00;;;13.90;59.30;;;;;;4888605;29;20393;-83
2023/10/15 17:37:34;;;;;;;0.08;0.08;;;13.90;59.70;;;;;;4874837;29;20017;-79
2023/10/15 17:40:00;;;;;;;0.10;0.10;;;13.80;60.80;;;;;;4894143;29;20039;-83
2023/10/15 17:42:26;;;;;;;0.00;0.00;;;13.80;60.40;;;;;;4888319;29;20056;-81
2023/10/15 17:44:52;;;;;;;0.00;0.00;;;13.80;60.20;;;;;;4890548;29;20036;-83